createdAt,value
2019-02-28T00:02:26.582Z,98507.51
2019-02-28T00:04:57.122Z,98508.50
2019-02-28T00:07:27.315Z,98511.23
2019-02-28T00:09:58.240Z,98511.95
2019-02-28T00:12:28.442Z,98507.55
2019-02-28T00:14:59.377Z,98513.79
2019-02-28T00:17:30.042Z,98505.39
2019-02-28T00:20:00.364Z,98508.02
2019-02-28T00:22:30.688Z,98505.49
2019-02-28T00:25:01.128Z,98505.39
2019-02-28T00:27:32.847Z,98505.59
2019-02-28T00:30:05.966Z,98499.48
2019-02-28T00:32:35.219Z,98497.56
2019-02-28T00:35:05.735Z,98493.33
2019-02-28T00:37:35.926Z,98490.77
2019-02-28T00:40:07.462Z,98488.06
2019-02-28T00:42:37.755Z,98483.59
2019-02-28T00:45:08.995Z,98484.33
2019-02-28T00:47:39.207Z,98483.61
2019-02-28T00:50:09.722Z,98487.83
2019-02-28T00:52:39.856Z,98475.64
2019-02-28T00:55:10.067Z,98469.70
2019-02-28T00:57:40.188Z,98469.90
2019-02-28T01:00:11.394Z,98467.13
2019-02-28T01:02:41.746Z,98466.23
2019-02-28T01:05:11.893Z,98459.27
2019-02-28T01:07:42.139Z,98458.48
2019-02-28T01:10:12.825Z,98461.49
2019-02-28T01:12:44.137Z,98454.84
2019-02-28T01:15:15.328Z,98453.95
2019-02-28T01:17:45.551Z,98443.27
2019-02-28T01:20:16.690Z,98446.37
2019-02-28T01:22:47.030Z,98440.83
2019-02-28T01:25:17.202Z,98440.71
2019-02-28T01:27:47.333Z,98436.92
2019-02-28T01:30:17.672Z,98435.55
2019-02-28T01:32:50.914Z,98433.60
2019-02-28T01:35:19.963Z,98428.37
2019-02-28T01:37:52.402Z,98429.42
2019-02-28T01:40:22.066Z,98429.66
2019-02-28T01:42:54.898Z,98422.27
2019-02-28T01:45:26.442Z,98416.64
2019-02-28T01:47:56.748Z,98415.63
2019-02-28T01:50:29.699Z,98410.75
2019-02-28T01:52:59.012Z,98408.71
2019-02-28T01:55:30.194Z,98403.75
2019-02-28T01:58:00.397Z,98402.85
2019-02-28T02:00:30.633Z,98400.66
2019-02-28T02:03:00.708Z,98385.66
2019-02-28T02:05:30.953Z,98389.37
2019-02-28T02:08:01.146Z,98377.41
2019-02-28T02:10:31.416Z,98379.17
2019-02-28T02:13:03.191Z,98368.63
2019-02-28T02:15:33.732Z,98362.80
2019-02-28T02:18:06.423Z,98367.02
2019-02-28T02:20:36.101Z,98370.53
2019-02-28T02:23:06.222Z,98364.64
2019-02-28T02:25:37.518Z,98358.07
2019-02-28T02:28:08.563Z,98362.36
2019-02-28T02:30:39.160Z,98359.55
2019-02-28T02:33:13.666Z,98356.89
2019-02-28T02:35:42.777Z,98357.70
2019-02-28T02:38:13.276Z,98365.59
2019-02-28T02:40:45.173Z,98354.98
2019-02-28T02:43:15.564Z,98356.61
2019-02-28T02:45:45.927Z,98359.27
2019-02-28T02:48:16.269Z,98356.45
2019-02-28T02:50:46.447Z,98367.38
2019-02-28T02:53:16.737Z,98359.84
2019-02-28T02:55:46.851Z,98356.52
2019-02-28T02:58:16.996Z,98358.72
2019-02-28T03:00:51.136Z,98352.82
2019-02-28T03:03:19.141Z,98357.82
2019-02-28T03:05:49.374Z,98356.03
2019-02-28T03:08:19.777Z,98354.22
2019-02-28T03:10:51.810Z,98350.58
2019-02-28T03:13:21.821Z,98348.00
2019-02-28T03:15:52.064Z,98346.09
2019-02-28T03:18:22.361Z,98339.84
2019-02-28T03:20:52.675Z,98336.45
2019-02-28T03:23:22.991Z,98328.84
2019-02-28T03:25:53.130Z,98327.52
2019-02-28T03:28:23.269Z,98329.06
2019-02-28T03:30:53.408Z,98324.10
2019-02-28T03:33:27.680Z,98329.55
2019-02-28T03:35:55.587Z,98328.45
2019-02-28T03:38:25.770Z,98324.48
2019-02-28T03:40:56.282Z,98327.05
2019-02-28T03:43:26.481Z,98329.84
2019-02-28T03:45:56.733Z,98321.73
2019-02-28T03:48:26.957Z,98327.50
2019-02-28T03:50:57.241Z,98326.23
2019-02-28T03:53:27.428Z,98327.67
2019-02-28T03:55:57.671Z,98324.06
2019-02-28T03:58:28.272Z,98315.52
2019-02-28T04:01:08.898Z,98320.22
2019-02-28T04:03:34.936Z,98320.14
2019-02-28T04:06:05.206Z,98317.41
2019-02-28T04:08:35.352Z,98319.73
2019-02-28T04:11:05.901Z,98319.15
2019-02-28T04:13:36.385Z,98317.03
2019-02-28T04:16:09.466Z,98315.81
2019-02-28T04:18:43.912Z,98314.44
2019-02-28T04:21:12.229Z,98315.45
2019-02-28T04:23:42.571Z,98318.61
2019-02-28T04:26:13.124Z,98312.80
2019-02-28T04:28:43.374Z,98311.70
2019-02-28T04:31:18.324Z,98315.50
2019-02-28T04:33:51.765Z,98311.16
2019-02-28T04:36:23.132Z,98308.02
2019-02-28T04:38:53.335Z,98300.97
2019-02-28T04:41:23.603Z,98306.19
2019-02-28T04:43:53.689Z,98307.14
2019-02-28T04:46:23.863Z,98303.45
2019-02-28T04:48:54.053Z,98294.81
2019-02-28T04:51:26.501Z,98307.28
2019-02-28T04:53:56.767Z,98313.31
2019-02-28T04:56:27.097Z,98314.45
2019-02-28T04:58:59.514Z,98308.84
2019-02-28T05:01:29.644Z,98310.25
2019-02-28T05:04:02.335Z,98313.55
2019-02-28T05:06:32.043Z,98311.53
2019-02-28T05:09:02.202Z,98314.78
2019-02-28T05:11:34.248Z,98313.59
2019-02-28T05:14:04.639Z,98313.30
2019-02-28T05:16:34.903Z,98308.92
2019-02-28T05:19:05.128Z,98316.69
2019-02-28T05:21:35.462Z,98311.07
2019-02-28T05:24:07.716Z,98300.83
2019-02-28T05:26:37.670Z,98308.92
2019-02-28T05:29:11.906Z,98315.55
2019-02-28T05:31:40.969Z,98312.11
2019-02-28T05:34:13.258Z,98316.15
2019-02-28T05:36:43.212Z,98307.91
2019-02-28T05:39:13.327Z,98308.92
2019-02-28T05:41:48.962Z,98316.28
2019-02-28T05:44:15.726Z,98316.00
2019-02-28T05:46:46.256Z,98319.97
2019-02-28T05:49:16.425Z,98321.42
2019-02-28T05:51:46.608Z,98324.48
2019-02-28T05:54:17.209Z,98316.17
2019-02-28T05:56:47.644Z,98329.19
2019-02-28T05:59:17.947Z,98331.75
2019-02-28T06:01:48.209Z,98330.33
2019-02-28T06:04:18.329Z,98337.39
2019-02-28T06:06:51.286Z,98337.27
2019-02-28T06:09:20.712Z,98340.01
2019-02-28T06:11:50.944Z,98340.20
2019-02-28T06:14:26.615Z,98339.41
2019-02-28T06:16:53.279Z,98344.70
2019-02-28T06:19:23.493Z,98341.02
2019-02-28T06:21:56.436Z,98343.54
2019-02-28T06:24:25.622Z,98341.58
2019-02-28T06:26:57.018Z,98343.50
2019-02-28T06:29:27.453Z,98350.69
2019-02-28T06:31:57.591Z,98350.14
2019-02-28T06:34:28.801Z,98349.28
2019-02-28T06:37:00.361Z,98356.17
2019-02-28T06:39:31.049Z,98358.38
2019-02-28T06:42:01.216Z,98359.16
2019-02-28T06:44:31.500Z,98363.73
2019-02-28T06:47:01.721Z,98365.97
2019-02-28T06:49:32.008Z,98369.52
2019-02-28T06:52:02.213Z,98369.52
2019-02-28T06:54:32.424Z,98377.43
2019-02-28T06:57:03.177Z,98380.14
2019-02-28T06:59:36.129Z,98381.64
2019-02-28T07:02:05.747Z,98386.39
2019-02-28T07:04:35.922Z,98386.34
2019-02-28T07:07:07.350Z,98387.20
2019-02-28T07:09:38.198Z,98383.95
2019-02-28T07:12:08.384Z,98391.66
2019-02-28T07:14:38.522Z,98383.69
2019-02-28T07:17:10.711Z,98388.09
2019-02-28T07:19:40.938Z,98386.05
2019-02-28T07:22:11.124Z,98384.78
2019-02-28T07:24:41.329Z,98374.98
2019-02-28T07:27:11.645Z,98383.08
2019-02-28T07:29:42.745Z,98378.08
2019-02-28T07:32:13.858Z,98387.14
2019-02-28T07:34:44.260Z,98384.83
2019-02-28T07:37:18.605Z,98393.69
2019-02-28T07:39:46.577Z,98397.12
2019-02-28T07:42:17.754Z,98392.44
2019-02-28T07:44:48.053Z,98391.16
2019-02-28T07:47:18.450Z,98381.31
2019-02-28T07:49:50.203Z,98380.59
2019-02-28T07:52:21.000Z,98374.75
2019-02-28T07:54:53.376Z,98378.59
2019-02-28T07:57:23.479Z,98382.72
2019-02-28T07:59:53.682Z,98383.13
2019-02-28T08:02:24.143Z,98377.68
2019-02-28T08:04:55.729Z,98377.95
2019-02-28T08:07:26.442Z,98382.52
2019-02-28T08:09:58.100Z,98365.50
2019-02-28T08:12:30.820Z,98365.50
2019-02-28T08:15:00.713Z,98373.02
2019-02-28T08:17:31.096Z,98371.01
2019-02-28T08:20:01.256Z,98372.14
2019-02-28T08:22:32.395Z,98366.00
2019-02-28T08:25:02.724Z,98371.23
2019-02-28T08:27:32.980Z,98367.44
2019-02-28T08:30:03.305Z,98370.41
2019-02-28T08:32:34.064Z,98363.52
2019-02-28T08:35:05.328Z,98366.09
2019-02-28T08:37:35.649Z,98356.33
2019-02-28T08:40:08.890Z,98361.47
2019-02-28T08:42:39.842Z,98353.44
2019-02-28T08:45:11.929Z,98364.88
2019-02-28T08:47:42.110Z,98359.03
2019-02-28T08:50:19.076Z,98354.91
2019-02-28T08:52:48.499Z,98354.44
2019-02-28T08:55:27.892Z,98354.08
2019-02-28T08:57:54.727Z,98353.23
2019-02-28T09:00:22.969Z,98351.66
2019-02-28T09:02:53.856Z,98347.77
2019-02-28T09:05:26.205Z,98350.11
2019-02-28T09:07:58.221Z,98351.41
2019-02-28T09:10:28.570Z,98347.46
2019-02-28T09:12:58.787Z,98347.30
2019-02-28T09:15:31.079Z,98341.08
2019-02-28T09:18:01.403Z,98344.91
2019-02-28T09:20:31.648Z,98347.02
2019-02-28T09:23:03.136Z,98345.09
2019-02-28T09:25:33.781Z,98340.37
2019-02-28T09:28:04.061Z,98333.12
2019-02-28T09:30:37.367Z,98338.18
2019-02-28T09:33:07.898Z,98335.60
2019-02-28T09:35:38.569Z,98333.95
2019-02-28T09:38:13.449Z,98339.77
2019-02-28T09:40:41.487Z,98332.25
2019-02-28T09:43:11.835Z,98331.30
2019-02-28T09:45:43.449Z,98333.58
2019-02-28T09:48:14.280Z,98328.53
2019-02-28T09:50:44.630Z,98336.05
2019-02-28T09:53:16.463Z,98326.46
2019-02-28T09:55:47.443Z,98329.48
2019-02-28T09:58:18.003Z,98327.58
2019-02-28T10:00:50.414Z,98326.73
2019-02-28T10:03:21.051Z,98320.88
2019-02-28T10:05:51.445Z,98326.01
2019-02-28T10:08:22.015Z,98314.14
2019-02-28T10:10:55.888Z,98313.62
2019-02-28T10:13:25.016Z,98327.14
2019-02-28T10:15:55.470Z,98313.86
2019-02-28T10:18:26.130Z,98314.81
2019-02-28T10:20:59.094Z,98313.30
2019-02-28T10:23:29.159Z,98295.58
2019-02-28T10:25:59.887Z,98295.88
2019-02-28T10:28:30.448Z,98292.77
2019-02-28T10:31:01.335Z,98284.70
2019-02-28T10:33:32.091Z,98281.47
2019-02-28T10:36:02.704Z,98275.69
2019-02-28T10:38:33.959Z,98283.82
2019-02-28T10:41:04.713Z,98281.22
2019-02-28T10:43:35.234Z,98279.11
2019-02-28T10:46:05.825Z,98272.08
2019-02-28T10:48:41.871Z,98291.76
2019-02-28T10:51:13.906Z,98279.23
2019-02-28T10:53:40.762Z,98279.83
2019-02-28T10:56:10.997Z,98281.50
2019-02-28T10:58:41.298Z,98278.89
2019-02-28T11:01:12.754Z,98270.39
2019-02-28T11:03:43.490Z,98271.55
2019-02-28T11:06:14.095Z,98265.27
2019-02-28T11:08:47.547Z,98264.34
2019-02-28T11:11:17.356Z,98267.16
2019-02-28T11:13:47.588Z,98265.73
2019-02-28T11:16:20.527Z,98263.70
2019-02-28T11:18:51.428Z,98261.75
2019-02-28T11:21:21.991Z,98254.38
2019-02-28T11:23:52.309Z,98257.51
2019-02-28T11:26:22.552Z,98258.11
2019-02-28T11:28:53.100Z,98258.11
2019-02-28T11:31:25.821Z,98253.88
2019-02-28T11:33:56.044Z,98256.80
2019-02-28T11:36:26.726Z,98242.55
2019-02-28T11:38:57.078Z,98241.67
2019-02-28T11:41:27.439Z,98230.37
2019-02-28T11:43:57.827Z,98218.96
2019-02-28T11:46:28.553Z,98228.62
2019-02-28T11:48:58.710Z,98223.69
2019-02-28T11:51:30.338Z,98216.36
2019-02-28T11:54:00.599Z,98214.06
2019-02-28T11:56:30.796Z,98219.85
2019-02-28T11:59:00.975Z,98213.59
2019-02-28T12:01:31.255Z,98210.91
2019-02-28T12:04:02.957Z,98206.00
2019-02-28T12:06:34.477Z,98210.29
2019-02-28T12:09:06.091Z,98200.74
2019-02-28T12:11:37.213Z,98206.94
2019-02-28T12:14:07.647Z,98192.27
2019-02-28T12:16:37.924Z,98192.27
2019-02-28T12:19:08.221Z,98190.59
2019-02-28T12:21:38.893Z,98184.20
2019-02-28T12:24:09.406Z,98176.91
2019-02-28T12:26:39.733Z,98176.14
2019-02-28T12:29:12.967Z,98173.70
2019-02-28T12:31:42.116Z,98159.58
2019-02-28T12:34:12.443Z,98167.47
2019-02-28T12:36:43.116Z,98161.81
2019-02-28T12:39:13.715Z,98164.39
2019-02-28T12:41:44.531Z,98169.23
2019-02-28T12:44:15.386Z,98171.32
2019-02-28T12:46:46.665Z,98167.22
2019-02-28T12:49:21.806Z,98161.58
2019-02-28T12:51:49.356Z,98145.51
2019-02-28T12:54:19.611Z,98162.19
2019-02-28T12:56:50.118Z,98155.86
2019-02-28T12:59:21.467Z,98147.03
2019-02-28T13:01:51.985Z,98138.08
2019-02-28T13:04:22.370Z,98143.16
2019-02-28T13:06:55.506Z,98140.53
2019-02-28T13:09:24.679Z,98139.23
2019-02-28T13:11:54.967Z,98138.99
2019-02-28T13:14:25.327Z,98147.20
2019-02-28T13:16:57.604Z,98142.75
2019-02-28T13:19:27.691Z,98146.23
2019-02-28T13:21:58.066Z,98138.27
2019-02-28T13:24:28.728Z,98144.36
2019-02-28T13:26:58.971Z,98135.15
2019-02-28T13:29:32.424Z,98128.39
2019-02-28T13:32:01.719Z,98125.13
2019-02-28T13:34:33.255Z,98127.03
2019-02-28T13:37:03.834Z,98126.27
2019-02-28T13:39:37.650Z,98105.00
2019-02-28T13:42:08.327Z,98109.48
2019-02-28T13:44:38.797Z,98108.30
2019-02-28T13:47:10.712Z,98109.49
2019-02-28T13:49:41.689Z,98110.61
2019-02-28T13:52:19.020Z,98110.25
2019-02-28T13:54:44.760Z,98103.27
2019-02-28T13:57:15.291Z,98102.69
2019-02-28T13:59:46.791Z,98104.95
2019-02-28T14:02:17.467Z,98106.59
2019-02-28T14:04:48.336Z,98107.60
2019-02-28T14:07:18.866Z,98103.84
2019-02-28T14:09:49.594Z,98110.33
2019-02-28T14:12:21.668Z,98106.89
2019-02-28T14:14:52.508Z,98095.33
2019-02-28T14:17:23.228Z,98102.62
2019-02-28T14:19:53.862Z,98101.16
2019-02-28T14:22:24.769Z,98100.72
2019-02-28T14:24:55.614Z,98103.19
2019-02-28T14:27:26.315Z,98089.02
2019-02-28T14:29:57.942Z,98095.55
2019-02-28T14:32:29.458Z,98104.02
2019-02-28T14:35:00.812Z,98099.08
2019-02-28T14:37:32.844Z,98100.64
2019-02-28T14:40:03.284Z,98096.29
2019-02-28T14:42:34.058Z,98084.67
2019-02-28T14:45:07.167Z,98078.98
2019-02-28T14:47:37.553Z,98085.72
2019-02-28T14:50:10.400Z,98080.77
2019-02-28T14:52:41.832Z,98077.81
2019-02-28T14:55:15.035Z,98066.70
2019-02-28T14:57:48.884Z,98064.70
2019-02-28T15:00:20.541Z,98060.16
2019-02-28T15:02:51.306Z,98063.98
2019-02-28T15:05:21.817Z,98060.11
2019-02-28T15:07:52.505Z,98049.98
2019-02-28T15:10:22.969Z,98051.95
2019-02-28T15:12:55.371Z,98045.45
2019-02-28T15:15:26.166Z,98029.86
2019-02-28T15:17:56.699Z,98037.48
2019-02-28T15:20:31.716Z,98031.35
2019-02-28T15:22:59.800Z,98037.89
2019-02-28T15:25:30.084Z,98024.56
2019-02-28T15:28:00.383Z,98033.31
2019-02-28T15:30:33.934Z,98023.47
2019-02-28T15:33:04.060Z,98027.81
2019-02-28T15:35:34.612Z,98034.55
2019-02-28T15:38:05.656Z,98034.20
2019-02-28T15:40:37.817Z,98028.63
2019-02-28T15:43:08.376Z,98034.46
2019-02-28T15:45:38.647Z,98032.28
2019-02-28T15:48:08.951Z,98033.76
2019-02-28T15:50:39.414Z,98047.80
2019-02-28T15:53:14.120Z,98035.36
2019-02-28T15:55:43.906Z,98036.36
2019-02-28T15:58:16.531Z,98044.69
2019-02-28T16:00:46.464Z,98033.69
2019-02-28T16:03:17.485Z,98041.69
2019-02-28T16:05:47.920Z,98041.52
2019-02-28T16:08:18.148Z,98042.66
2019-02-28T16:10:53.157Z,98046.39
2019-02-28T16:13:22.627Z,98053.08
2019-02-28T16:15:52.623Z,98052.80
2019-02-28T16:18:22.981Z,98058.06
2019-02-28T16:20:53.622Z,98072.50
2019-02-28T16:23:27.595Z,98085.59
2019-02-28T16:25:56.056Z,98087.02
2019-02-28T16:28:26.466Z,98088.08
2019-02-28T16:30:57.057Z,98078.43
2019-02-28T16:33:27.402Z,98082.02
2019-02-28T16:35:57.866Z,98077.70
2019-02-28T16:38:30.018Z,98068.33
2019-02-28T16:41:01.529Z,98075.73
2019-02-28T16:43:33.969Z,98071.89
2019-02-28T16:46:04.367Z,98073.58
2019-02-28T16:48:36.500Z,98082.34
2019-02-28T16:51:07.010Z,98087.91
2019-02-28T16:53:37.837Z,98093.55
2019-02-28T16:56:08.344Z,98088.33
2019-02-28T16:58:38.651Z,98099.35
2019-02-28T17:01:09.055Z,98100.08
2019-02-28T17:03:41.704Z,98098.06
2019-02-28T17:06:11.507Z,98102.77
2019-02-28T17:08:51.495Z,98109.41
2019-02-28T17:11:22.523Z,98115.84
2019-02-28T17:14:02.195Z,98116.99
2019-02-28T17:16:39.467Z,98127.53
2019-02-28T17:19:10.027Z,98123.97
2019-02-28T17:21:40.691Z,98133.02
2019-02-28T17:24:12.327Z,98145.24
2019-02-28T17:26:53.151Z,98147.23
2019-02-28T17:29:32.743Z,98151.33
2019-02-28T17:32:03.348Z,98161.60
2019-02-28T17:34:33.836Z,98166.44
2019-02-28T17:37:04.299Z,98169.83
2019-02-28T17:39:34.602Z,98169.79
2019-02-28T17:42:08.622Z,98162.48
2019-02-28T17:44:46.302Z,98180.75
2019-02-28T17:47:59.671Z,98179.95
2019-02-28T17:50:44.614Z,98187.41
2019-02-28T17:54:03.550Z,98183.77
2019-02-28T17:57:21.145Z,98185.61
2019-02-28T18:00:31.702Z,98182.27
2019-02-28T18:03:45.070Z,98189.28
2019-02-28T18:06:47.476Z,98185.66
2019-02-28T18:09:54.193Z,98188.59
2019-02-28T18:13:00.648Z,98190.91
2019-02-28T18:16:09.252Z,98186.72
2019-02-28T18:19:32.769Z,98191.97
2019-02-28T18:22:44.713Z,98193.49
2019-02-28T18:25:57.072Z,98184.55
2019-02-28T18:29:20.919Z,98181.25
2019-02-28T18:31:53.867Z,98192.24
2019-02-28T18:34:28.867Z,98194.23
2019-02-28T18:36:59.098Z,98193.45
2019-02-28T18:39:29.320Z,98201.37
2019-02-28T18:41:59.628Z,98203.28
2019-02-28T18:44:29.851Z,98206.38
2019-02-28T18:47:02.968Z,98214.86
2019-02-28T18:49:32.214Z,98216.75
2019-02-28T18:52:02.711Z,98218.59
2019-02-28T18:54:33.418Z,98216.91
2019-02-28T18:57:04.354Z,98219.94
2019-02-28T18:59:34.627Z,98216.67
2019-02-28T19:02:04.965Z,98219.92
2019-02-28T19:04:35.464Z,98228.64
2019-02-28T19:07:05.994Z,98226.42
2019-02-28T19:09:36.511Z,98237.88
2019-02-28T19:12:07.070Z,98243.40
2019-02-28T19:14:37.322Z,98249.91
2019-02-28T19:17:07.719Z,98256.06
2019-02-28T19:19:38.572Z,98254.16
2019-02-28T19:22:09.013Z,98243.14
2019-02-28T19:24:42.471Z,98267.34
2019-02-28T19:27:12.982Z,98272.67
2019-02-28T19:29:43.667Z,98272.31
2019-02-28T19:32:14.199Z,98268.70
2019-02-28T19:34:45.862Z,98275.61
2019-02-28T19:37:16.553Z,98287.39
2019-02-28T19:39:47.027Z,98291.66
2019-02-28T19:42:17.424Z,98280.83
2019-02-28T19:44:48.244Z,98277.01
2019-02-28T19:47:18.591Z,98275.34
2019-02-28T19:49:48.884Z,98276.20
2019-02-28T19:52:19.345Z,98276.85
2019-02-28T19:54:49.822Z,98281.68
2019-02-28T19:57:20.275Z,98292.02
2019-02-28T19:59:50.536Z,98295.22
2019-02-28T20:02:20.883Z,98299.02
2019-02-28T20:04:51.326Z,98305.75
2019-02-28T20:07:21.629Z,98310.42
2019-02-28T20:09:52.078Z,98307.02
2019-02-28T20:12:22.557Z,98306.64
2019-02-28T20:14:53.167Z,98318.48
2019-02-28T20:17:23.587Z,98311.70
2019-02-28T20:19:55.151Z,98308.26
2019-02-28T20:22:25.702Z,98298.78
2019-02-28T20:24:59.489Z,98302.19
2019-02-28T20:27:29.948Z,98294.11
2019-02-28T20:30:00.456Z,98290.50
2019-02-28T20:32:30.802Z,98291.01
2019-02-28T20:35:01.548Z,98288.19
2019-02-28T20:37:32.091Z,98285.87
2019-02-28T20:40:02.670Z,98289.27
2019-02-28T20:42:33.635Z,98287.34
2019-02-28T20:45:04.155Z,98293.03
2019-02-28T20:47:34.819Z,98286.65
2019-02-28T20:50:08.712Z,98280.38
2019-02-28T20:52:39.343Z,98285.06
2019-02-28T20:55:10.457Z,98284.02
2019-02-28T20:57:40.705Z,98277.83
2019-02-28T21:00:14.352Z,98280.53
2019-02-28T21:02:45.374Z,98287.73
2019-02-28T21:05:15.876Z,98286.34
2019-02-28T21:07:46.202Z,98292.33
2019-02-28T21:10:17.277Z,98287.53
2019-02-28T21:12:47.825Z,98277.75
2019-02-28T21:15:18.952Z,98285.16
2019-02-28T21:17:50.141Z,98282.70
2019-02-28T21:20:20.599Z,98277.59
2019-02-28T21:22:51.372Z,98274.03
2019-02-28T21:25:23.067Z,98270.78
2019-02-28T21:27:54.203Z,98265.06
2019-02-28T21:30:24.859Z,98266.22
2019-02-28T21:32:55.209Z,98255.33
2019-02-28T21:35:25.958Z,98262.95
2019-02-28T21:37:57.051Z,98249.52
2019-02-28T21:40:27.799Z,98252.50
2019-02-28T21:42:58.594Z,98248.71
2019-02-28T21:45:29.183Z,98245.46
2019-02-28T21:47:59.850Z,98249.48
2019-02-28T21:50:30.572Z,98241.36
2019-02-28T21:53:01.201Z,98240.86
2019-02-28T21:55:31.494Z,98241.47
2019-02-28T21:58:01.881Z,98235.22
2019-02-28T22:00:32.395Z,98233.78
2019-02-28T22:03:03.067Z,98233.37
2019-02-28T22:05:33.475Z,98236.15
2019-02-28T22:08:03.784Z,98232.94
2019-02-28T22:10:34.132Z,98233.37
2019-02-28T22:13:04.994Z,98224.41
2019-02-28T22:15:35.437Z,98217.38
2019-02-28T22:18:05.935Z,98221.98
2019-02-28T22:20:36.860Z,98223.64
2019-02-28T22:23:07.217Z,98224.69
2019-02-28T22:25:37.872Z,98220.36
2019-02-28T22:28:08.233Z,98221.20
2019-02-28T22:31:00.417Z,98214.78
2019-02-28T22:33:50.166Z,98214.98
2019-02-28T22:36:24.683Z,98207.11
2019-02-28T22:38:55.112Z,98223.98
2019-02-28T22:41:25.717Z,98225.95
2019-02-28T22:43:56.056Z,98219.88
2019-02-28T22:46:26.479Z,98202.47
2019-02-28T22:48:57.038Z,98215.47
2019-02-28T22:51:27.527Z,98207.75
2019-02-28T22:53:57.753Z,98209.52
2019-02-28T22:56:28.011Z,98213.03
2019-02-28T22:58:58.397Z,98202.20
2019-02-28T23:01:28.884Z,98201.36
2019-02-28T23:03:59.454Z,98193.05
2019-02-28T23:06:29.717Z,98191.37
2019-02-28T23:09:00.083Z,98189.63
2019-02-28T23:11:30.381Z,98183.08
2019-02-28T23:14:00.602Z,98181.46
2019-02-28T23:16:31.332Z,98189.41
2019-02-28T23:19:01.611Z,98184.91
2019-02-28T23:21:31.961Z,98168.17
2019-02-28T23:24:03.181Z,98168.64
2019-02-28T23:26:54.069Z,98168.95
2019-02-28T23:29:26.168Z,98162.58
2019-02-28T23:32:23.765Z,98162.84
2019-02-28T23:34:55.378Z,98159.88
2019-02-28T23:37:25.561Z,98148.48
2019-02-28T23:39:55.768Z,98152.45
2019-02-28T23:42:26.033Z,98138.68
2019-02-28T23:44:56.546Z,98135.77
2019-02-28T23:47:26.759Z,98140.47
2019-02-28T23:49:56.907Z,98136.34
2019-02-28T23:52:27.153Z,98129.80
2019-02-28T23:54:57.409Z,98135.23
2019-02-28T23:57:28.094Z,98132.20
2019-02-28T23:59:58.492Z,98130.31
